Latest Weather Observations for Georgetown Airport

IDQ60801

Issued at 7:12 am EST Wednesday 23 October 2019 (issued every 10 minutes, with the page automatically refreshed every 10 minutes)

About weather observations | Map of weather stations | Latest weather observations for QLD | Other Formats
Station Details ID: 030124 Name: GEORGETOWN AIRPORT Lat: -18.30 Lon: 143.53 Height: 301.77 m
Data from the previous 72 hours. | See also: Recent months at Georgetown Airport
Date/Time
EST
Temp
°C
App
Temp
°C
Dew
Point
°C
Rel
Hum
%
Delta-T
°C
Wind Press
QNH
hPa
Press
MSL
hPa
Rain since
9am
mm
Dir  Spd
km/h
Gust
km/h
Spd
kts
Gust
kts
23/07:00am 22.1 19.7 12.6 55 5.5 E 17 28 9 15 1018.0 1016.0 0.0
23/06:30am 21.1 19.3 12.0 56 5.2 ESE 13 20 7 11 1017.4 1015.4 0.0
23/06:00am 20.6 19.0 11.5 56 5.1 ESE 11 20 6 11 1017.1 1015.1 0.0
23/05:30am 20.5 19.0 10.6 53 5.5 ESE 9 15 5 8 1016.7 1014.7 0.0
23/05:00am 21.2 18.3 9.8 48 6.2 E 15 22 8 12 1016.3 1014.3 0.0
23/04:30am 21.5 18.5 9.4 46 6.6 E 15 30 8 16 1016.2 1014.2 0.0
23/04:00am 21.7 19.2 9.6 46 6.6 E 13 20 7 11 1016.0 1014.0 0.0
23/03:30am 21.7 19.6 9.9 47 6.5 E 11 17 6 9 1015.7 1013.7 0.0
23/03:00am 22.0 19.6 10.2 47 6.5 E 13 22 7 12 1015.7 1013.7 0.0
23/02:30am 22.0 19.7 10.5 48 6.4 E 13 19 7 10 1015.8 1013.8 0.0
23/02:00am 22.5 19.0 10.3 46 6.8 E 19 30 10 16 1016.0 1014.0 0.0
23/01:30am 22.7 19.7 10.8 47 6.7 E 17 26 9 14 1016.1 1014.1 0.0
23/01:00am 23.1 20.0 11.5 48 6.6 E 19 32 10 17 1016.3 1014.3 0.0
23/12:30am 23.2 20.2 12.5 51 6.2 E 20 28 11 15 1016.6 1014.6 0.0
23/12:00am 23.5 21.5 12.8 51 6.2 E 15 32 8 17 1016.6 1014.6 0.0
 
Date/Time
EST
Temp
°C
App
Temp
°C
Dew
Point
°C
Rel
Hum
%
Delta-T
°C
Wind Press
QNH
hPa
Press
MSL
hPa
Rain since
9am
mm
Dir  Spd
km/h
Gust
km/h
Spd
kts
Gust
kts
22/11:30pm 24.1 20.9 13.0 50 6.5 ENE 22 35 12 19 1016.7 1014.7 0.0
22/11:00pm 24.5 21.0 13.4 50 6.5 ENE 24 35 13 19 1016.8 1014.8 0.0
22/10:30pm 25.0 21.9 13.5 48 6.8 ENE 22 32 12 17 1016.8 1014.8 0.0
22/10:00pm 25.6 22.5 13.5 47 7.2 ENE 22 35 12 19 1016.4 1014.4 0.0
22/09:30pm 26.3 22.2 13.8 46 7.5 ENE 28 39 15 21 1016.1 1014.1 0.0
22/09:00pm 26.9 22.7 13.6 44 8.0 ENE 28 41 15 22 1015.8 1013.8 0.0
22/08:30pm 27.9 23.9 13.1 40 8.8 ENE 26 39 14 21 1015.4 1013.4 0.0
22/08:00pm 28.6 24.2 12.9 38 9.4 ENE 28 41 15 22 1015.0 1013.0 0.0
22/07:30pm 29.7 26.4 10.8 31 10.9 ENE 19 28 10 15 1014.6 1012.5 0.0
22/07:00pm 30.2 26.4 11.2 31 11.1 ENE 22 35 12 19 1014.0 1012.0 0.0
22/06:30pm 31.1 27.5 10.4 28 12.0 E 20 37 11 20 1013.6 1011.6 0.0
22/06:00pm 32.1 29.3 8.4 23 13.4 E 13 26 7 14 1013.1 1011.1 0.0
22/05:30pm 32.7 29.1 8.2 22 13.8 E 17 26 9 14 1012.8 1010.8 0.0
22/05:00pm 32.7 28.5 7.5 21 14.1 ESE 19 30 10 16 1012.5 1010.5 0.0
22/04:30pm 33.9 30.7 8.5 21 14.5 ESE 15 26 8 14 1012.4 1010.4 0.0
22/04:00pm 33.3 30.0 8.0 21 14.3 E 15 26 8 14 1012.4 1010.4 0.0
22/03:30pm 34.6 32.1 8.4 20 14.9 ESE 11 20 6 11 1012.3 1010.3 0.0
22/03:00pm 33.2 30.4 8.6 22 14.0 E 13 28 7 15 1012.5 1010.5 0.0
22/02:30pm 33.3 30.2 8.7 22 14.0 E 15 35 8 19 1013.0 1011.0 0.0
22/02:00pm 32.8 28.6 8.3 22 13.8 ESE 20 33 11 18 1013.2 1011.2 0.0
22/01:30pm 33.6 30.4 8.3 21 14.3 ENE 15 35 8 19 1013.5 1011.5 0.0
22/01:00pm 33.5 30.0 8.9 22 14.1 ENE 17 30 9 16 1014.1 1012.1 0.0
22/12:30pm 33.6 29.8 9.0 22 14.1 E 19 35 10 19 1014.8 1012.7 0.0
22/12:00pm 32.9 29.8 9.0 23 13.6 ESE 15 32 8 17 1015.4 1013.4 0.0
22/11:30am 32.3 28.8 10.9 27 12.6 ENE 20 41 11 22 1016.0 1014.0 0.0
22/11:00am 31.5 26.8 10.8 28 12.1 ENE 26 39 14 21 1016.6 1014.6 0.0
22/10:30am 30.4 26.5 10.9 30 11.3 E 22 37 12 20 1017.0 1015.0 0.0
22/10:00am 30.0 25.9 11.5 32 10.8 E 24 37 13 20 1017.3 1015.3 0.0
22/09:30am 28.7 25.1 13.0 38 9.4 E 24 37 13 20 1017.8 1015.7 0.0
22/09:00am 28.2 26.1 14.8 44 8.2 E 19 30 10 16 1017.9 1015.9 0.0
22/08:30am 26.3 24.2 14.7 48 7.0 E 19 26 10 14 1017.6 1015.6 0.0
22/08:00am 25.3 23.1 14.4 50 6.6 E 19 28 10 15 1017.5 1015.5 0.0
22/07:30am 24.3 23.0 14.7 55 5.8 E 15 26 8 14 1017.2 1015.2 0.0
22/07:00am 23.4 23.0 15.2 60 5.0 E 11 19 6 10 1017.0 1015.0 0.0
22/06:30am 21.7 22.7 15.3 67 3.9 E 4 7 2 4 1016.7 1014.7 0.0
22/06:00am 20.4 21.5 14.7 70 3.4 E 2 6 1 3 1016.5 1014.5 0.0
22/05:30am 21.1 21.4 15.0 68 3.6 E 7 9 4 5 1016.2 1014.2 0.0
22/05:00am 21.4 21.3 15.0 67 3.8 ESE 9 13 5 7 1015.9 1013.9 0.0
22/04:30am 21.6 21.6 14.3 63 4.3 ESE 7 9 4 5 1015.6 1013.6 0.0
22/04:00am 21.8 21.4 14.2 62 4.5 ESE 9 13 5 7 1015.4 1013.4 0.0
22/03:30am 22.2 22.1 13.8 59 4.9 ESE 7 13 4 7 1015.3 1013.3 0.0
22/03:00am 23.0 22.5 13.8 56 5.4 E 9 17 5 9 1015.2 1013.2 0.0
22/02:30am 23.1 22.8 13.3 54 5.7 ESE 7 15 4 8 1015.2 1013.2 0.0
22/02:00am 23.6 21.5 13.5 53 5.9 E 17 28 9 15 1015.1 1013.1 0.0
22/01:30am 23.6 22.3 13.8 54 5.8 E 13 24 7 13 1015.1 1013.1 0.0
22/01:00am 23.8 21.4 13.9 54 5.9 E 19 33 10 18 1015.2 1013.2 0.0
22/12:30am 23.8 22.7 14.2 55 5.7 E 13 26 7 14 1015.2 1013.2 0.0
22/12:00am 24.3 20.7 14.1 53 6.1 E 26 39 14 21 1015.5 1013.5 0.0
 
Date/Time
EST
Temp
°C
App
Temp
°C
Dew
Point
°C
Rel
Hum
%
Delta-T
°C
Wind Press
QNH
hPa
Press
MSL
hPa
Rain since
9am
mm
Dir  Spd
km/h
Gust
km/h
Spd
kts
Gust
kts
21/11:30pm 24.8 21.1 14.0 51 6.5 ENE 26 41 14 22 1015.6 1013.6 0.0
21/11:00pm 25.3 22.5 14.4 50 6.6 ENE 22 35 12 19 1015.7 1013.7 0.0
21/10:30pm 26.0 22.2 14.8 50 6.8 ENE 28 52 15 28 1015.7 1013.7 0.0
21/10:28pm 26.1 22.3 14.6 49 7.0 ENE 28 52 15 28 1015.6 1013.6 0.0
21/10:00pm 26.8 23.9 15.2 49 7.1 E 24 39 13 21 1015.5 1013.5 0.0
21/09:30pm 27.6 25.5 14.6 45 7.9 E 19 28 10 15 1015.0 1013.0 0.0
21/09:00pm 28.2 26.1 15.1 44 8.1 E 20 30 11 16 1014.5 1012.4 0.0
21/08:30pm 29.0 26.5 15.2 43 8.5 E 22 33 12 18 1014.1 1012.1 0.0
21/08:00pm 29.5 26.6 15.2 41 8.9 E 24 35 13 19 1013.7 1011.7 0.0
21/07:40pm 30.2 26.4 14.7 39 9.6 E 28 44 15 24 1013.4 1011.4 0.0
21/07:30pm 31.0 28.6 8.7 25 12.6 E 11 26 6 14 1013.2 1011.2 0.0
21/07:00pm 32.0 29.7 7.6 22 13.6 ESE 9 19 5 10 1012.7 1010.7 0.0
21/06:30pm 32.9 29.9 7.7 21 14.1 ESE 13 19 7 10 1012.3 1010.3 0.0
21/06:00pm 33.6 29.6 8.3 21 14.3 E 19 33 10 18 1012.0 1010.0 0.0
21/05:30pm 34.2 29.8 6.5 18 15.3 E 19 30 10 16 1011.5 1009.4 0.0
21/05:00pm 34.5 30.9 6.7 18 15.4 ESE 15 22 8 12 1011.2 1009.1 0.0
21/04:30pm 35.1 32.2 6.4 17 15.9 SE 11 22 6 12 1011.0 1008.9 0.0
21/04:00pm 35.7 31.6 4.1 14 17.0 NE 15 24 8 13 1011.0 1008.9 0.0
21/03:30pm 35.6 32.2 5.9 16 16.4 E 13 20 7 11 1011.1 1009.0 0.0
21/03:00pm 35.7 32.7 6.0 16 16.4 ESE 11 24 6 13 1011.4 1009.3 0.0
21/02:30pm 35.5 32.1 5.8 16 16.3 ESE 13 41 7 22 1011.6 1009.5 0.0
21/02:00pm 35.1 30.3 4.6 15 16.4 SE 19 33 10 18 1012.1 1010.1 0.0
21/01:30pm 35.8 32.6 5.1 15 16.7 ESE 11 24 6 13 1012.5 1010.5 0.0
21/01:00pm 34.6 31.4 6.8 18 15.5 ESE 13 28 7 15 1013.2 1011.2 0.0
21/12:30pm 34.6 32.1 8.4 20 14.9 SE 11 17 6 9 1013.8 1011.8 0.0
21/12:00pm 33.4 30.4 9.4 23 13.8 ESE 15 28 8 15 1014.5 1012.4 0.0
21/11:30am 32.9 29.9 12.5 29 12.3 ENE 20 32 11 17 1015.1 1013.1 0.0
21/11:00am 31.0 28.4 13.3 34 10.7 ENE 19 30 10 16 1015.6 1013.6 0.0
21/10:30am 30.8 28.4 14.4 36 10.1 ESE 20 33 11 18 1016.1 1014.1 0.0
21/10:00am 29.7 27.5 14.3 39 9.4 E 19 28 10 15 1016.4 1014.4 0.0
21/09:30am 28.8 27.3 14.2 40 8.9 ENE 15 22 8 12 1016.9 1014.9 0.0
21/09:00am 26.8 23.9 12.8 42 8.3 ENE 20 28 11 15 1017.0 1015.0 0.0
21/08:30am 26.4 23.3 13.5 45 7.7 ENE 22 28 12 15 1016.9 1014.9 0.0
21/08:00am 25.4 23.0 8.8 35 9.1 ENE 11 15 6 8 1016.8 1014.8 0.0
21/07:30am 23.1 22.0 5.1 31 9.1 CALM 0 7 0 4 1016.5 1014.5 0.0
21/07:00am 19.9 16.8 0.4 27 8.8 ENE 6 9 3 5 1016.2 1014.2 0.0
21/06:30am 15.8 12.4 -5.3 23 8.2 ENE 4 9 2 5 1015.9 1013.9 0.0
21/06:00am 13.6 10.7 -8.3 21 7.7 CALM 0 0 0 0 1015.6 1013.6 0.0
21/05:30am 13.6 9.4 -9.6 19 7.9 S 6 9 3 5 1015.2 1013.2 0.0
21/05:00am 13.9 10.6 -8.7 20 7.9 S 2 7 1 4 1014.7 1012.6 0.0
21/04:30am 14.0 9.9 -8.6 20 8.0 SSW 6 9 3 5 1014.2 1012.2 0.0
21/04:00am 14.0 10.2 -9.9 18 8.2 SSW 4 9 2 5 1014.0 1012.0 0.0
21/03:30am 14.7 11.6 -10.8 16 8.6 CALM 0 0 0 0 1014.0 1012.0 0.0
21/03:00am 15.1 11.6 -10.5 16 8.8 WSW 2 7 1 4 1014.1 1012.1 0.0
21/02:30am 15.2 11.8 -9.7 17 8.7 E 2 7 1 4 1014.5 1012.4 0.0
21/02:00am 15.9 11.6 -11.5 14 9.3 SSE 6 7 3 4 1014.4 1012.3 0.0
21/01:30am 16.7 12.4 -10.9 14 9.6 E 6 11 3 6 1014.6 1012.5 0.0
21/01:00am 17.5 13.2 -11.2 13 10.0 ENE 6 7 3 4 1014.8 1012.7 0.0
21/12:30am 19.3 16.0 -13.0 10 11.1 CALM 0 4 0 2 1014.8 1012.7 0.0
21/12:00am 21.1 17.1 -13.0 9 11.9 SSE 4 6 2 3 1015.0 1013.0 0.0
 
Date/Time
EST
Temp
°C
App
Temp
°C
Dew
Point
°C
Rel
Hum
%
Delta-T
°C
Wind Press
QNH
hPa
Press
MSL
hPa
Rain since
9am
mm
Dir  Spd
km/h
Gust
km/h
Spd
kts
Gust
kts
20/11:30pm 24.4 19.4 -13.6 7 13.7 S 9 13 5 7 1015.1 1013.1 0.0
20/11:00pm 25.9 20.5 -14.4 6 14.6 S 11 15 6 8 1015.1 1013.1 0.0
20/10:30pm 26.7 21.3 -13.8 6 14.9 S 11 17 6 9 1015.1 1013.1 0.0
20/10:00pm 27.2 21.9 -11.5 7 14.9 S 11 17 6 9 1014.9 1012.9 0.0
20/09:30pm 28.0 23.0 -12.9 6 15.5 S 9 15 5 8 1014.7 1012.6 0.0
20/09:00pm 28.9 24.0 -12.2 6 15.9 S 9 17 5 9 1014.4 1012.3 0.0
20/08:30pm 30.0 24.4 -11.4 6 16.5 SSW 13 17 7 9 1014.0 1012.0 0.0
20/08:00pm 30.5 24.9 -11.1 6 16.7 SSW 13 20 7 11 1013.6 1011.6 0.0
20/07:30pm 30.9 26.1 -10.8 6 16.9 SSW 9 15 5 8 1013.2 1011.2 0.0
20/07:00pm 32.3 26.8 -9.8 6 17.6 SSW 13 20 7 11 1012.7 1010.7 0.0
20/06:30pm 33.5 27.7 -9.0 6 18.2 S 15 24 8 13 1012.4 1010.4 0.0
20/06:00pm 34.7 28.4 -10.4 5 19.0 S 17 26 9 14 1012.0 1010.0 0.0
20/05:30pm 35.6 28.8 -9.8 5 19.5 SSW 20 39 11 21 1011.8 1009.7 0.0
20/05:00pm 36.1 29.9 -9.4 5 19.8 S 17 33 9 18 1011.7 1009.6 0.0
20/04:30pm 36.6 29.1 -9.1 5 20.0 S 24 39 13 21 1011.7 1009.6 0.0
20/04:00pm 36.8 30.0 -9.0 5 20.1 S 20 33 11 18 1011.4 1009.3 0.0
20/03:30pm 37.2 31.4 -8.7 5 20.3 S 15 24 8 13 1011.7 1009.6 0.0
20/03:00pm 36.9 30.3 -8.9 5 20.2 S 19 39 10 21 1011.9 1009.9 0.0
20/02:30pm 37.1 29.6 -8.7 5 20.3 SSW 24 37 13 20 1012.5 1010.5 0.0
20/02:00pm 37.1 30.0 -8.7 5 20.3 S 22 37 12 20 1012.8 1010.8 0.0
20/01:30pm 37.0 30.4 -6.5 6 19.9 S 20 39 11 21 1013.2 1011.2 0.0
20/01:00pm 36.0 29.4 -7.2 6 19.4 S 20 37 11 20 1013.9 1011.9 0.0
20/12:30pm 37.1 30.6 -6.4 6 19.9 S 20 33 11 18 1014.7 1012.6 0.0
20/12:00pm 36.0 29.4 -7.2 6 19.4 SSE 20 30 11 16 1015.4 1013.4 0.0
20/11:30am 35.5 28.8 -7.5 6 19.1 SSE 20 33 11 18 1015.9 1013.9 0.0
20/11:00am 35.0 27.4 -10.2 5 19.2 SSE 24 41 13 22 1016.4 1014.4 0.0
20/10:30am 35.2 28.5 -7.7 6 19.0 SE 20 35 11 19 1016.9 1014.9 0.0
20/10:00am 33.8 25.5 -8.7 6 18.3 SSE 28 43 15 23 1017.4 1015.4 0.0
20/09:30am 33.0 26.2 -9.3 6 17.9 SE 20 33 11 18 1017.6 1015.6 0.0
20/09:00am 32.6 25.4 -9.6 6 17.7 SE 22 37 12 20 1017.9 1015.9 0.0
20/08:30am 31.5 24.8 -10.4 6 17.2 SE 19 32 10 17 1018.0 1016.0 0.0
20/08:00am 30.5 25.0 -9.1 7 16.4 SSE 13 20 7 11 1018.0 1016.0 0.0
20/07:30am 27.8 24.9 -7.9 9 14.8 CALM 0 6 0 3 1017.8 1015.7 0.0
20/07:27am 27.6 24.3 -8.1 9 14.7 SSW 2 6 1 3 1017.8 1015.7 0.0

Other formats

Comma delimited format used in spreadsheet applications
http://www.bom.gov.au/fwo/IDQ60801/IDQ60801.94274.axf

JavaScript Object Notation format (JSON) in row-major order
http://www.bom.gov.au/fwo/IDQ60801/IDQ60801.94274.json

Data quality

Most of these data are generated automatically and are frequently updated. Quality checks on data are not normally performed. It is possible for incorrect values to appear. Refer to information at About Latest Weather Observations and please check the disclaimer before using these data.